sensor_id;sensor_type;location;lat;lon;timestamp;temperature;humidity
65378;SHT31;51982;51.042;13.806;2023-04-24T00:01:09;16.17;79.27
65378;SHT31;51982;51.042;13.806;2023-04-24T00:03:35;16.16;79.33
65378;SHT31;51982;51.042;13.806;2023-04-24T00:06:00;16.14;79.47
65378;SHT31;51982;51.042;13.806;2023-04-24T00:08:26;16.16;79.40
65378;SHT31;51982;51.042;13.806;2023-04-24T00:10:51;16.14;79.49
65378;SHT31;51982;51.042;13.806;2023-04-24T00:13:17;16.14;79.48
65378;SHT31;51982;51.042;13.806;2023-04-24T00:15:43;16.12;79.62
65378;SHT31;51982;51.042;13.806;2023-04-24T00:18:08;16.09;79.77
65378;SHT31;51982;51.042;13.806;2023-04-24T00:20:33;16.07;79.83
65378;SHT31;51982;51.042;13.806;2023-04-24T00:23:00;16.07;79.87
65378;SHT31;51982;51.042;13.806;2023-04-24T00:25:25;16.09;79.92
65378;SHT31;51982;51.042;13.806;2023-04-24T00:27:51;16.03;79.98
65378;SHT31;51982;51.042;13.806;2023-04-24T00:30:16;16.07;79.98
65378;SHT31;51982;51.042;13.806;2023-04-24T00:32:41;16.10;79.92
65378;SHT31;51982;51.042;13.806;2023-04-24T00:35:07;16.13;79.94
65378;SHT31;51982;51.042;13.806;2023-04-24T00:37:32;16.13;79.87
65378;SHT31;51982;51.042;13.806;2023-04-24T00:39:57;16.13;79.89
65378;SHT31;51982;51.042;13.806;2023-04-24T00:42:23;16.09;79.93
65378;SHT31;51982;51.042;13.806;2023-04-24T00:44:48;16.06;80.02
65378;SHT31;51982;51.042;13.806;2023-04-24T00:47:13;16.10;80.05
65378;SHT31;51982;51.042;13.806;2023-04-24T00:49:39;16.12;79.95
65378;SHT31;51982;51.042;13.806;2023-04-24T00:52:04;16.10;80.03
65378;SHT31;51982;51.042;13.806;2023-04-24T00:54:34;16.10;79.91
65378;SHT31;51982;51.042;13.806;2023-04-24T00:56:59;16.06;79.93
65378;SHT31;51982;51.042;13.806;2023-04-24T00:59:26;16.05;79.99
65378;SHT31;51982;51.042;13.806;2023-04-24T01:01:51;16.07;79.99
65378;SHT31;51982;51.042;13.806;2023-04-24T01:04:17;16.06;79.99
65378;SHT31;51982;51.042;13.806;2023-04-24T01:06:44;16.05;79.96
65378;SHT31;51982;51.042;13.806;2023-04-24T01:09:11;16.05;80.00
65378;SHT31;51982;51.042;13.806;2023-04-24T01:11:37;16.06;80.00
65378;SHT31;51982;51.042;13.806;2023-04-24T01:14:02;16.03;80.05
65378;SHT31;51982;51.042;13.806;2023-04-24T01:16:28;16.03;80.08
65378;SHT31;51982;51.042;13.806;2023-04-24T01:18:53;15.96;80.23
65378;SHT31;51982;51.042;13.806;2023-04-24T01:21:20;15.93;80.31
65378;SHT31;51982;51.042;13.806;2023-04-24T01:23:47;15.93;80.31
65378;SHT31;51982;51.042;13.806;2023-04-24T01:26:14;15.87;80.48
65378;SHT31;51982;51.042;13.806;2023-04-24T01:28:39;15.90;80.56
65378;SHT31;51982;51.042;13.806;2023-04-24T01:31:05;15.92;80.56
65378;SHT31;51982;51.042;13.806;2023-04-24T01:33:30;15.96;80.48
65378;SHT31;51982;51.042;13.806;2023-04-24T01:35:56;15.95;80.48
65378;SHT31;51982;51.042;13.806;2023-04-24T01:38:22;15.96;80.49
65378;SHT31;51982;51.042;13.806;2023-04-24T01:40:47;15.96;80.50
65378;SHT31;51982;51.042;13.806;2023-04-24T01:43:13;15.92;80.54
65378;SHT31;51982;51.042;13.806;2023-04-24T01:45:38;15.93;80.61
65378;SHT31;51982;51.042;13.806;2023-04-24T01:48:03;15.92;80.62
65378;SHT31;51982;51.042;13.806;2023-04-24T01:50:29;15.90;80.69
65378;SHT31;51982;51.042;13.806;2023-04-24T01:52:54;15.92;80.69
65378;SHT31;51982;51.042;13.806;2023-04-24T01:55:20;15.90;80.75
65378;SHT31;51982;51.042;13.806;2023-04-24T01:57:45;15.90;80.79
65378;SHT31;51982;51.042;13.806;2023-04-24T02:00:11;15.85;80.84
65378;SHT31;51982;51.042;13.806;2023-04-24T02:02:37;15.82;80.85
65378;SHT31;51982;51.042;13.806;2023-04-24T02:05:06;15.79;80.92
65378;SHT31;51982;51.042;13.806;2023-04-24T02:07:31;15.81;81.05
65378;SHT31;51982;51.042;13.806;2023-04-24T02:09:57;15.75;81.14
65378;SHT31;51982;51.042;13.806;2023-04-24T02:12:23;15.76;81.10
65378;SHT31;51982;51.042;13.806;2023-04-24T02:14:48;15.82;81.02
65378;SHT31;51982;51.042;13.806;2023-04-24T02:17:13;15.79;81.12
65378;SHT31;51982;51.042;13.806;2023-04-24T02:19:40;15.76;81.06
65378;SHT31;51982;51.042;13.806;2023-04-24T02:22:05;15.75;81.18
65378;SHT31;51982;51.042;13.806;2023-04-24T02:24:31;15.76;81.18
65378;SHT31;51982;51.042;13.806;2023-04-24T02:26:56;15.75;81.16
65378;SHT31;51982;51.042;13.806;2023-04-24T02:29:22;15.70;81.26
65378;SHT31;51982;51.042;13.806;2023-04-24T02:31:48;15.67;81.43
65378;SHT31;51982;51.042;13.806;2023-04-24T02:34:13;15.70;81.32
65378;SHT31;51982;51.042;13.806;2023-04-24T02:36:38;15.70;81.37
65378;SHT31;51982;51.042;13.806;2023-04-24T02:39:03;15.66;81.50
65378;SHT31;51982;51.042;13.806;2023-04-24T02:41:29;15.69;81.47
65378;SHT31;51982;51.042;13.806;2023-04-24T02:43:57;15.66;81.48
65378;SHT31;51982;51.042;13.806;2023-04-24T02:46:22;15.69;81.50
65378;SHT31;51982;51.042;13.806;2023-04-24T02:48:48;15.70;81.45
65378;SHT31;51982;51.042;13.806;2023-04-24T02:51:13;15.70;81.43
65378;SHT31;51982;51.042;13.806;2023-04-24T02:53:38;15.70;81.47
65378;SHT31;51982;51.042;13.806;2023-04-24T02:56:03;15.69;81.46
65378;SHT31;51982;51.042;13.806;2023-04-24T02:58:29;15.69;81.50
65378;SHT31;51982;51.042;13.806;2023-04-24T03:00:55;15.73;81.44
65378;SHT31;51982;51.042;13.806;2023-04-24T03:03:23;15.69;81.51
65378;SHT31;51982;51.042;13.806;2023-04-24T03:05:48;15.67;81.52
65378;SHT31;51982;51.042;13.806;2023-04-24T03:08:14;15.66;81.56
65378;SHT31;51982;51.042;13.806;2023-04-24T03:10:39;15.67;81.50
65378;SHT31;51982;51.042;13.806;2023-04-24T03:13:05;15.66;81.55
65378;SHT31;51982;51.042;13.806;2023-04-24T03:15:30;15.67;81.68
65378;SHT31;51982;51.042;13.806;2023-04-24T03:17:55;15.67;81.63
65378;SHT31;51982;51.042;13.806;2023-04-24T03:20:20;15.61;81.61
65378;SHT31;51982;51.042;13.806;2023-04-24T03:22:46;15.62;81.61
65378;SHT31;51982;51.042;13.806;2023-04-24T03:25:11;15.58;81.78
65378;SHT31;51982;51.042;13.806;2023-04-24T03:27:37;15.56;81.82
65378;SHT31;51982;51.042;13.806;2023-04-24T03:30:02;15.49;82.03
65378;SHT31;51982;51.042;13.806;2023-04-24T03:32:28;15.46;82.14
65378;SHT31;51982;51.042;13.806;2023-04-24T03:34:53;15.41;82.29
65378;SHT31;51982;51.042;13.806;2023-04-24T03:37:18;15.39;82.27
65378;SHT31;51982;51.042;13.806;2023-04-24T03:39:44;15.44;82.20
65378;SHT31;51982;51.042;13.806;2023-04-24T03:42:09;15.44;82.19
65378;SHT31;51982;51.042;13.806;2023-04-24T03:44:35;15.42;82.20
65378;SHT31;51982;51.042;13.806;2023-04-24T03:47:00;15.42;82.19
65378;SHT31;51982;51.042;13.806;2023-04-24T03:49:26;15.45;82.05
65378;SHT31;51982;51.042;13.806;2023-04-24T03:51:51;15.42;82.28
65378;SHT31;51982;51.042;13.806;2023-04-24T03:54:18;15.45;82.10
65378;SHT31;51982;51.042;13.806;2023-04-24T03:56:43;15.45;82.16
65378;SHT31;51982;51.042;13.806;2023-04-24T03:59:08;15.45;82.22
65378;SHT31;51982;51.042;13.806;2023-04-24T04:01:34;15.45;82.19
65378;SHT31;51982;51.042;13.806;2023-04-24T04:04:02;15.39;82.32
65378;SHT31;51982;51.042;13.806;2023-04-24T04:06:28;15.42;82.38
65378;SHT31;51982;51.042;13.806;2023-04-24T04:08:53;15.44;82.25
65378;SHT31;51982;51.042;13.806;2023-04-24T04:11:18;15.46;82.19
65378;SHT31;51982;51.042;13.806;2023-04-24T04:13:44;15.49;82.07
65378;SHT31;51982;51.042;13.806;2023-04-24T04:16:09;15.51;82.10
65378;SHT31;51982;51.042;13.806;2023-04-24T04:18:34;15.51;82.19
65378;SHT31;51982;51.042;13.806;2023-04-24T04:20:59;15.51;82.11
65378;SHT31;51982;51.042;13.806;2023-04-24T04:23:26;15.52;82.14
65378;SHT31;51982;51.042;13.806;2023-04-24T04:25:51;15.55;81.99
65378;SHT31;51982;51.042;13.806;2023-04-24T04:28:16;15.55;82.01
65378;SHT31;51982;51.042;13.806;2023-04-24T04:30:44;15.58;81.91
65378;SHT31;51982;51.042;13.806;2023-04-24T04:33:10;15.54;81.95
65378;SHT31;51982;51.042;13.806;2023-04-24T04:35:35;15.56;82.03
65378;SHT31;51982;51.042;13.806;2023-04-24T04:38:01;15.56;82.00
65378;SHT31;51982;51.042;13.806;2023-04-24T04:40:26;15.55;82.20
65378;SHT31;51982;51.042;13.806;2023-04-24T04:42:53;15.52;82.14
65378;SHT31;51982;51.042;13.806;2023-04-24T04:45:19;15.55;82.16
65378;SHT31;51982;51.042;13.806;2023-04-24T04:47:45;15.59;82.08
65378;SHT31;51982;51.042;13.806;2023-04-24T04:50:10;15.62;81.94
65378;SHT31;51982;51.042;13.806;2023-04-24T04:52:36;15.65;81.92
65378;SHT31;51982;51.042;13.806;2023-04-24T04:55:01;15.66;81.82
65378;SHT31;51982;51.042;13.806;2023-04-24T04:57:27;15.66;81.71
65378;SHT31;51982;51.042;13.806;2023-04-24T04:59:52;15.69;81.64
65378;SHT31;51982;51.042;13.806;2023-04-24T05:02:17;15.72;81.46
65378;SHT31;51982;51.042;13.806;2023-04-24T05:04:43;15.78;81.28
65378;SHT31;51982;51.042;13.806;2023-04-24T05:07:08;15.79;81.28
65378;SHT31;51982;51.042;13.806;2023-04-24T05:09:33;15.82;81.17
65378;SHT31;51982;51.042;13.806;2023-04-24T05:11:58;15.85;80.94
65378;SHT31;51982;51.042;13.806;2023-04-24T05:14:23;15.89;80.64
65378;SHT31;51982;51.042;13.806;2023-04-24T05:16:49;15.90;80.73
65378;SHT31;51982;51.042;13.806;2023-04-24T05:19:14;15.95;80.59
65378;SHT31;51982;51.042;13.806;2023-04-24T05:21:40;15.99;80.49
65378;SHT31;51982;51.042;13.806;2023-04-24T05:24:06;16.02;80.38
65378;SHT31;51982;51.042;13.806;2023-04-24T05:26:31;16.05;80.17
65378;SHT31;51982;51.042;13.806;2023-04-24T05:28:56;16.09;79.68
65378;SHT31;51982;51.042;13.806;2023-04-24T05:31:22;16.07;79.58
65378;SHT31;51982;51.042;13.806;2023-04-24T05:33:47;16.13;79.80
65378;SHT31;51982;51.042;13.806;2023-04-24T05:36:12;16.13;79.58
65378;SHT31;51982;51.042;13.806;2023-04-24T05:38:38;16.20;79.49
65378;SHT31;51982;51.042;13.806;2023-04-24T05:41:03;16.23;79.29
65378;SHT31;51982;51.042;13.806;2023-04-24T05:43:28;16.24;78.98
65378;SHT31;51982;51.042;13.806;2023-04-24T05:45:53;16.26;78.30
65378;SHT31;51982;51.042;13.806;2023-04-24T05:48:19;16.33;77.95
65378;SHT31;51982;51.042;13.806;2023-04-24T05:50:44;16.37;77.73
65378;SHT31;51982;51.042;13.806;2023-04-24T05:53:10;16.37;77.28
65378;SHT31;51982;51.042;13.806;2023-04-24T05:55:36;16.37;76.82
65378;SHT31;51982;51.042;13.806;2023-04-24T05:58:01;16.38;76.62
65378;SHT31;51982;51.042;13.806;2023-04-24T06:00:26;16.43;76.94
65378;SHT31;51982;51.042;13.806;2023-04-24T06:02:51;16.48;76.65
65378;SHT31;51982;51.042;13.806;2023-04-24T06:05:17;16.51;76.76
65378;SHT31;51982;51.042;13.806;2023-04-24T06:07:43;16.56;76.57
65378;SHT31;51982;51.042;13.806;2023-04-24T06:10:09;16.60;76.84
65378;SHT31;51982;51.042;13.806;2023-04-24T06:12:34;16.64;76.73
65378;SHT31;51982;51.042;13.806;2023-04-24T06:15:00;16.71;76.37
65378;SHT31;51982;51.042;13.806;2023-04-24T06:17:25;16.74;76.11
65378;SHT31;51982;51.042;13.806;2023-04-24T06:19:51;16.75;75.94
65378;SHT31;51982;51.042;13.806;2023-04-24T06:22:16;16.79;75.38
65378;SHT31;51982;51.042;13.806;2023-04-24T06:24:41;16.89;75.15
65378;SHT31;51982;51.042;13.806;2023-04-24T06:27:06;16.96;75.28
65378;SHT31;51982;51.042;13.806;2023-04-24T06:29:33;17.02;75.31
65378;SHT31;51982;51.042;13.806;2023-04-24T06:31:58;17.11;75.40
65378;SHT31;51982;51.042;13.806;2023-04-24T06:34:23;17.21;75.22
65378;SHT31;51982;51.042;13.806;2023-04-24T06:36:49;17.28;74.92
65378;SHT31;51982;51.042;13.806;2023-04-24T06:39:14;17.32;74.69
65378;SHT31;51982;51.042;13.806;2023-04-24T06:41:39;17.38;74.38
65378;SHT31;51982;51.042;13.806;2023-04-24T06:44:05;17.42;73.78
65378;SHT31;51982;51.042;13.806;2023-04-24T06:46:30;17.42;73.82
65378;SHT31;51982;51.042;13.806;2023-04-24T06:48:56;17.42;73.37
65378;SHT31;51982;51.042;13.806;2023-04-24T06:51:25;17.43;73.14
65378;SHT31;51982;51.042;13.806;2023-04-24T06:53:51;17.52;73.15
65378;SHT31;51982;51.042;13.806;2023-04-24T06:56:16;17.54;72.66
65378;SHT31;51982;51.042;13.806;2023-04-24T06:58:42;17.59;72.59
65378;SHT31;51982;51.042;13.806;2023-04-24T07:01:07;17.59;72.07
65378;SHT31;51982;51.042;13.806;2023-04-24T07:03:32;17.65;72.09
65378;SHT31;51982;51.042;13.806;2023-04-24T07:05:57;17.74;72.19
65378;SHT31;51982;51.042;13.806;2023-04-24T07:08:23;17.80;72.12
65378;SHT31;51982;51.042;13.806;2023-04-24T07:10:49;17.89;72.04
65378;SHT31;51982;51.042;13.806;2023-04-24T07:13:15;17.91;72.08
65378;SHT31;51982;51.042;13.806;2023-04-24T07:15:41;17.90;71.61
65378;SHT31;51982;51.042;13.806;2023-04-24T07:18:06;17.89;71.23
65378;SHT31;51982;51.042;13.806;2023-04-24T07:20:31;17.96;71.29
65378;SHT31;51982;51.042;13.806;2023-04-24T07:22:58;18.04;71.04
65378;SHT31;51982;51.042;13.806;2023-04-24T07:25:23;18.11;70.89
65378;SHT31;51982;51.042;13.806;2023-04-24T07:27:48;18.15;70.82
65378;SHT31;51982;51.042;13.806;2023-04-24T07:30:14;18.20;70.25
65378;SHT31;51982;51.042;13.806;2023-04-24T07:32:39;18.15;69.94
65378;SHT31;51982;51.042;13.806;2023-04-24T07:35:05;18.18;69.81
65378;SHT31;51982;51.042;13.806;2023-04-24T07:37:30;18.18;69.86
65378;SHT31;51982;51.042;13.806;2023-04-24T07:39:55;18.27;69.73
65378;SHT31;51982;51.042;13.806;2023-04-24T07:42:21;18.27;69.98
65378;SHT31;51982;51.042;13.806;2023-04-24T07:44:46;18.31;69.72
65378;SHT31;51982;51.042;13.806;2023-04-24T07:47:12;18.31;69.63
65378;SHT31;51982;51.042;13.806;2023-04-24T07:49:41;18.35;69.66
65378;SHT31;51982;51.042;13.806;2023-04-24T07:52:06;18.38;69.50
65378;SHT31;51982;51.042;13.806;2023-04-24T07:54:31;18.37;69.45
65378;SHT31;51982;51.042;13.806;2023-04-24T07:56:56;18.38;69.63
65378;SHT31;51982;51.042;13.806;2023-04-24T07:59:22;18.42;69.44
65378;SHT31;51982;51.042;13.806;2023-04-24T08:01:47;18.45;69.36
65378;SHT31;51982;51.042;13.806;2023-04-24T08:04:12;18.51;69.46
65378;SHT31;51982;51.042;13.806;2023-04-24T08:06:37;18.61;69.29
65378;SHT31;51982;51.042;13.806;2023-04-24T08:09:03;18.61;69.22
65378;SHT31;51982;51.042;13.806;2023-04-24T08:11:28;18.71;68.95
65378;SHT31;51982;51.042;13.806;2023-04-24T08:13:53;18.72;68.66
65378;SHT31;51982;51.042;13.806;2023-04-24T08:16:19;18.72;68.51
65378;SHT31;51982;51.042;13.806;2023-04-24T08:18:45;18.71;68.52
65378;SHT31;51982;51.042;13.806;2023-04-24T08:21:10;18.76;68.60
65378;SHT31;51982;51.042;13.806;2023-04-24T08:23:36;18.81;68.68
65378;SHT31;51982;51.042;13.806;2023-04-24T08:26:01;18.81;68.60
65378;SHT31;51982;51.042;13.806;2023-04-24T08:28:26;18.88;68.64
65378;SHT31;51982;51.042;13.806;2023-04-24T08:30:52;18.88;68.40
65378;SHT31;51982;51.042;13.806;2023-04-24T08:33:20;18.88;68.23
65378;SHT31;51982;51.042;13.806;2023-04-24T08:35:45;18.88;68.53
65378;SHT31;51982;51.042;13.806;2023-04-24T08:38:10;18.86;68.07
65378;SHT31;51982;51.042;13.806;2023-04-24T08:40:36;18.84;67.81
65378;SHT31;51982;51.042;13.806;2023-04-24T08:43:03;18.82;67.83
65378;SHT31;51982;51.042;13.806;2023-04-24T08:45:29;18.77;67.69
65378;SHT31;51982;51.042;13.806;2023-04-24T08:47:54;18.71;67.45
65378;SHT31;51982;51.042;13.806;2023-04-24T08:50:21;18.64;67.39
65378;SHT31;51982;51.042;13.806;2023-04-24T08:52:47;18.59;67.34
65378;SHT31;51982;51.042;13.806;2023-04-24T08:55:14;18.56;67.36
65378;SHT31;51982;51.042;13.806;2023-04-24T08:57:42;18.54;67.22
65378;SHT31;51982;51.042;13.806;2023-04-24T09:00:10;18.47;66.82
65378;SHT31;51982;51.042;13.806;2023-04-24T09:02:35;18.51;66.79
65378;SHT31;51982;51.042;13.806;2023-04-24T09:05:01;18.69;66.79
65378;SHT31;51982;51.042;13.806;2023-04-24T09:07:27;18.82;66.61
65378;SHT31;51982;51.042;13.806;2023-04-24T09:09:52;18.96;66.60
65378;SHT31;51982;51.042;13.806;2023-04-24T09:12:18;19.05;65.85
65378;SHT31;51982;51.042;13.806;2023-04-24T09:14:45;19.03;65.70
65378;SHT31;51982;51.042;13.806;2023-04-24T09:17:11;19.03;65.89
65378;SHT31;51982;51.042;13.806;2023-04-24T09:19:37;19.10;64.86
65378;SHT31;51982;51.042;13.806;2023-04-24T09:22:06;19.15;64.17
65378;SHT31;51982;51.042;13.806;2023-04-24T09:24:33;19.19;63.83
65378;SHT31;51982;51.042;13.806;2023-04-24T09:26:58;19.20;63.86
65378;SHT31;51982;51.042;13.806;2023-04-24T09:29:24;19.26;63.87
65378;SHT31;51982;51.042;13.806;2023-04-24T09:31:50;19.34;63.82
65378;SHT31;51982;51.042;13.806;2023-04-24T09:34:24;19.41;63.74
65378;SHT31;51982;51.042;13.806;2023-04-24T09:36:49;19.47;62.48
65378;SHT31;51982;51.042;13.806;2023-04-24T09:39:15;19.58;63.98
65378;SHT31;51982;51.042;13.806;2023-04-24T09:41:49;19.58;63.71
65378;SHT31;51982;51.042;13.806;2023-04-24T09:44:26;19.61;63.64
65378;SHT31;51982;51.042;13.806;2023-04-24T09:49:28;19.57;63.42
65378;SHT31;51982;51.042;13.806;2023-04-24T09:52:04;19.45;62.86
65378;SHT31;51982;51.042;13.806;2023-04-24T09:54:29;19.40;63.63
65378;SHT31;51982;51.042;13.806;2023-04-24T09:56:54;19.41;63.56
65378;SHT31;51982;51.042;13.806;2023-04-24T09:59:20;19.45;63.50
65378;SHT31;51982;51.042;13.806;2023-04-24T10:01:45;19.46;63.31
65378;SHT31;51982;51.042;13.806;2023-04-24T10:04:23;19.51;62.70
65378;SHT31;51982;51.042;13.806;2023-04-24T10:06:50;19.43;62.85
65378;SHT31;51982;51.042;13.806;2023-04-24T10:09:17;19.49;62.81
65378;SHT31;51982;51.042;13.806;2023-04-24T10:11:44;19.57;62.53
65378;SHT31;51982;51.042;13.806;2023-04-24T10:14:17;19.63;62.46
65378;SHT31;51982;51.042;13.806;2023-04-24T10:16:43;19.64;62.67
65378;SHT31;51982;51.042;13.806;2023-04-24T10:19:09;19.66;62.58
65378;SHT31;51982;51.042;13.806;2023-04-24T10:21:35;19.74;62.98
65378;SHT31;51982;51.042;13.806;2023-04-24T10:24:07;19.71;62.55
65378;SHT31;51982;51.042;13.806;2023-04-24T10:26:32;19.75;62.44
65378;SHT31;51982;51.042;13.806;2023-04-24T10:28:58;19.73;62.34
65378;SHT31;51982;51.042;13.806;2023-04-24T10:31:24;19.77;62.48
65378;SHT31;51982;51.042;13.806;2023-04-24T10:33:51;19.85;62.22
65378;SHT31;51982;51.042;13.806;2023-04-24T10:36:17;19.87;61.74
65378;SHT31;51982;51.042;13.806;2023-04-24T10:38:43;19.84;61.77
65378;SHT31;51982;51.042;13.806;2023-04-24T10:41:12;19.84;61.99
65378;SHT31;51982;51.042;13.806;2023-04-24T10:43:44;19.95;62.01
65378;SHT31;51982;51.042;13.806;2023-04-24T10:46:10;20.04;61.74
65378;SHT31;51982;51.042;13.806;2023-04-24T10:48:35;20.09;61.74
65378;SHT31;51982;51.042;13.806;2023-04-24T10:51:01;20.09;61.75
65378;SHT31;51982;51.042;13.806;2023-04-24T10:53:29;20.02;61.76
65378;SHT31;51982;51.042;13.806;2023-04-24T10:56:09;19.97;61.37
65378;SHT31;51982;51.042;13.806;2023-04-24T10:58:42;19.92;61.84
65378;SHT31;51982;51.042;13.806;2023-04-24T11:01:25;19.91;61.78
65378;SHT31;51982;51.042;13.806;2023-04-24T11:03:55;19.88;62.01
65378;SHT31;51982;51.042;13.806;2023-04-24T11:06:29;19.77;61.93
65378;SHT31;51982;51.042;13.806;2023-04-24T11:09:04;19.73;62.04
65378;SHT31;51982;51.042;13.806;2023-04-24T11:11:31;19.64;62.19
65378;SHT31;51982;51.042;13.806;2023-04-24T11:16:42;19.46;62.24
65378;SHT31;51982;51.042;13.806;2023-04-24T11:19:26;19.20;62.09
65378;SHT31;51982;51.042;13.806;2023-04-24T11:24:30;19.33;62.86
65378;SHT31;51982;51.042;13.806;2023-04-24T11:27:06;19.23;62.77
65378;SHT31;51982;51.042;13.806;2023-04-24T11:35:08;19.26;63.74
65378;SHT31;51982;51.042;13.806;2023-04-24T11:37:38;19.30;63.70
65378;SHT31;51982;51.042;13.806;2023-04-24T11:40:06;19.37;63.89
65378;SHT31;51982;51.042;13.806;2023-04-24T11:42:45;19.34;63.92
65378;SHT31;51982;51.042;13.806;2023-04-24T11:45:13;19.36;63.93
65378;SHT31;51982;51.042;13.806;2023-04-24T11:47:40;19.30;64.18
65378;SHT31;51982;51.042;13.806;2023-04-24T11:50:08;19.38;64.46
65378;SHT31;51982;51.042;13.806;2023-04-24T11:52:37;19.50;64.38
65378;SHT31;51982;51.042;13.806;2023-04-24T11:55:02;19.58;64.07
65378;SHT31;51982;51.042;13.806;2023-04-24T11:57:29;19.63;64.07
65378;SHT31;51982;51.042;13.806;2023-04-24T11:59:59;19.68;63.95
65378;SHT31;51982;51.042;13.806;2023-04-24T12:02:26;19.74;63.98
65378;SHT31;51982;51.042;13.806;2023-04-24T12:04:53;19.78;64.02
65378;SHT31;51982;51.042;13.806;2023-04-24T12:07:18;19.87;64.00
65378;SHT31;51982;51.042;13.806;2023-04-24T12:09:46;19.87;63.65
65378;SHT31;51982;51.042;13.806;2023-04-24T12:12:13;19.91;63.85
65378;SHT31;51982;51.042;13.806;2023-04-24T12:14:48;19.89;63.32
65378;SHT31;51982;51.042;13.806;2023-04-24T12:17:15;19.82;63.09
65378;SHT31;51982;51.042;13.806;2023-04-24T12:19:46;19.73;63.10
65378;SHT31;51982;51.042;13.806;2023-04-24T12:22:12;19.60;62.57
65378;SHT31;51982;51.042;13.806;2023-04-24T12:24:55;19.53;61.69
65378;SHT31;51982;51.042;13.806;2023-04-24T12:27:21;19.51;61.32
65378;SHT31;51982;51.042;13.806;2023-04-24T12:29:55;19.46;59.34
65378;SHT31;51982;51.042;13.806;2023-04-24T12:32:20;19.49;59.50
65378;SHT31;51982;51.042;13.806;2023-04-24T12:34:46;19.47;59.08
65378;SHT31;51982;51.042;13.806;2023-04-24T12:37:11;19.43;58.61
65378;SHT31;51982;51.042;13.806;2023-04-24T12:39:37;19.40;58.08
65378;SHT31;51982;51.042;13.806;2023-04-24T12:42:02;19.46;58.37
65378;SHT31;51982;51.042;13.806;2023-04-24T12:44:34;19.54;57.80
65378;SHT31;51982;51.042;13.806;2023-04-24T12:47:00;19.53;57.31
65378;SHT31;51982;51.042;13.806;2023-04-24T12:49:25;19.56;57.62
65378;SHT31;51982;51.042;13.806;2023-04-24T12:51:51;19.51;57.81
65378;SHT31;51982;51.042;13.806;2023-04-24T12:54:16;19.41;57.71
65378;SHT31;51982;51.042;13.806;2023-04-24T12:56:41;19.27;58.15
65378;SHT31;51982;51.042;13.806;2023-04-24T12:59:06;19.28;58.83
65378;SHT31;51982;51.042;13.806;2023-04-24T13:01:32;19.36;58.62
65378;SHT31;51982;51.042;13.806;2023-04-24T13:03:57;19.26;58.60
65378;SHT31;51982;51.042;13.806;2023-04-24T13:06:22;19.28;58.74
65378;SHT31;51982;51.042;13.806;2023-04-24T13:08:47;19.28;58.28
65378;SHT31;51982;51.042;13.806;2023-04-24T13:11:13;19.34;58.21
65378;SHT31;51982;51.042;13.806;2023-04-24T13:13:38;19.38;56.82
65378;SHT31;51982;51.042;13.806;2023-04-24T13:16:04;19.36;56.95
65378;SHT31;51982;51.042;13.806;2023-04-24T13:18:29;19.46;57.08
65378;SHT31;51982;51.042;13.806;2023-04-24T13:20:55;19.50;56.75
65378;SHT31;51982;51.042;13.806;2023-04-24T13:23:20;19.51;56.21
65378;SHT31;51982;51.042;13.806;2023-04-24T13:25:46;19.66;55.97
65378;SHT31;51982;51.042;13.806;2023-04-24T13:28:12;19.73;55.35
65378;SHT31;51982;51.042;13.806;2023-04-24T13:30:37;19.68;54.73
65378;SHT31;51982;51.042;13.806;2023-04-24T13:33:03;19.61;54.90
65378;SHT31;51982;51.042;13.806;2023-04-24T13:35:28;19.60;54.20
65378;SHT31;51982;51.042;13.806;2023-04-24T13:37:53;19.53;54.01
65378;SHT31;51982;51.042;13.806;2023-04-24T13:40:18;19.60;54.18
65378;SHT31;51982;51.042;13.806;2023-04-24T13:42:44;19.56;54.14
65378;SHT31;51982;51.042;13.806;2023-04-24T13:45:09;19.61;54.76
65378;SHT31;51982;51.042;13.806;2023-04-24T13:47:35;19.54;54.67
65378;SHT31;51982;51.042;13.806;2023-04-24T13:50:01;19.43;54.87
65378;SHT31;51982;51.042;13.806;2023-04-24T13:52:26;19.43;53.90
65378;SHT31;51982;51.042;13.806;2023-04-24T13:54:51;19.33;53.49
65378;SHT31;51982;51.042;13.806;2023-04-24T13:57:16;19.24;53.46
65378;SHT31;51982;51.042;13.806;2023-04-24T13:59:42;19.10;53.62
65378;SHT31;51982;51.042;13.806;2023-04-24T14:02:07;19.05;53.54
65378;SHT31;51982;51.042;13.806;2023-04-24T14:04:32;19.10;53.84
65378;SHT31;51982;51.042;13.806;2023-04-24T14:06:58;19.05;53.73
65378;SHT31;51982;51.042;13.806;2023-04-24T14:09:23;19.10;53.68
65378;SHT31;51982;51.042;13.806;2023-04-24T14:11:48;19.05;53.54
65378;SHT31;51982;51.042;13.806;2023-04-24T14:14:13;19.10;53.74
65378;SHT31;51982;51.042;13.806;2023-04-24T14:16:39;19.17;54.03
65378;SHT31;51982;51.042;13.806;2023-04-24T14:19:04;19.20;53.97
65378;SHT31;51982;51.042;13.806;2023-04-24T14:21:30;19.26;53.96
65378;SHT31;51982;51.042;13.806;2023-04-24T14:23:56;19.45;54.28
65378;SHT31;51982;51.042;13.806;2023-04-24T14:26:21;19.54;54.09
65378;SHT31;51982;51.042;13.806;2023-04-24T14:28:46;19.56;53.62
65378;SHT31;51982;51.042;13.806;2023-04-24T14:31:12;19.61;53.64
65378;SHT31;51982;51.042;13.806;2023-04-24T14:33:37;19.57;52.97
65378;SHT31;51982;51.042;13.806;2023-04-24T14:36:02;19.57;53.01
65378;SHT31;51982;51.042;13.806;2023-04-24T14:38:29;19.58;53.27
65378;SHT31;51982;51.042;13.806;2023-04-24T14:40:55;19.64;53.12
65378;SHT31;51982;51.042;13.806;2023-04-24T14:43:20;19.63;53.29
65378;SHT31;51982;51.042;13.806;2023-04-24T14:45:46;19.46;53.01
65378;SHT31;51982;51.042;13.806;2023-04-24T14:48:11;19.56;53.59
65378;SHT31;51982;51.042;13.806;2023-04-24T14:50:36;19.58;53.64
65378;SHT31;51982;51.042;13.806;2023-04-24T14:53:01;19.66;53.65
65378;SHT31;51982;51.042;13.806;2023-04-24T14:55:27;19.66;53.55
65378;SHT31;51982;51.042;13.806;2023-04-24T14:57:52;19.63;53.29
65378;SHT31;51982;51.042;13.806;2023-04-24T15:00:18;19.47;53.07
65378;SHT31;51982;51.042;13.806;2023-04-24T15:02:45;19.54;53.41
65378;SHT31;51982;51.042;13.806;2023-04-24T15:05:10;19.54;53.62
65378;SHT31;51982;51.042;13.806;2023-04-24T15:07:37;19.61;53.80
65378;SHT31;51982;51.042;13.806;2023-04-24T15:10:03;19.61;54.06
65378;SHT31;51982;51.042;13.806;2023-04-24T15:12:28;19.56;53.57
65378;SHT31;51982;51.042;13.806;2023-04-24T15:14:54;19.47;53.12
65378;SHT31;51982;51.042;13.806;2023-04-24T15:17:19;19.46;53.16
65378;SHT31;51982;51.042;13.806;2023-04-24T15:19:44;19.46;53.34
65378;SHT31;51982;51.042;13.806;2023-04-24T15:22:10;19.38;53.49